VYYY/RGN METAR and TAF weather

Enter ICAO airport designator
Station Type Date Time Source
VYYY METAR 2022/11/30 17:00 UTC NOAA

VYYY 301700Z 24007KT 6000 BKN015 FEW020CB BKN100 26/25 Q1011


Station Type Date Time Source
VYYY Decoded METAR 2022/11/30 17:00 UTC NOAA

Yangon, Myanmar (VYYY) 16-46N 096-10E 15M
Nov 30, 2022 - 12:00 PM EST / 2022.11.30 1700 UTC
Wind: from the WSW (240 degrees) at 8 MPH (7 KT):0
Visibility: 3 mile(s):0
Sky conditions: mostly cloudy
Weather: Cumulonimbus clouds observed
Temperature: 78 F (26 C)
Dew Point: 77 F (25 C)
Relative Humidity: 94%
Pressure (altimeter): 29.85 in. Hg (1011 hPa)
ob: VYYY 301700Z 24007KT 6000 BKN015 FEW020CB BKN100 26/25 Q1011
cycle: 17

Station Type Date Time Source
VYYY TAF 2022/11/30 12:39 UTC NOAA

TAF TAF VYYY 301100Z 3012/0112 05004KT 7000 FEW020 SCT110
TEMPO 3012/3018 33005KT 7000 FEW018 SCT100

Example: see airport list